Terminal Aerodrome Forecast
Issued by NWS Buffalo, NY

Home | Current Version | Previous Version | Text Only | Print | Product List | Glossary On
Versions: 1 2 3 4 5 6 7 8 9 10 11 12 13 14 15 16 17 18 19 20 21 22 23
000
FTUS41 KBUF 212332
TAFROC
TAF
KROC 212332Z 2200/2224 27006KT P6SM FEW030 BKN180
     FM220300 19004KT P6SM FEW250
     FM221100 20008KT P6SM BKN110
     FM221300 21010KT P6SM BKN050
     FM221600 22013KT P6SM VCSH BKN050
     FM221800 24013G19KT 4SM SHRA VCTS BKN060CB
     FM222000 23013G19KT 4SM SHRA VCTS OVC045CB=

USA.gov is the U.S. government's official web portal to all federal, state and local government web resources and services.